sensor_id;sensor_type;location;lat;lon;timestamp;P1;durP1;ratioP1;P2;durP2;ratioP2
2111;SDS011;1062;52.538;13.400;2024-01-15T00:01:56;11.63;;;8.43;;
2111;SDS011;1062;52.538;13.400;2024-01-15T00:04:22;13.90;;;8.57;;
2111;SDS011;1062;52.538;13.400;2024-01-15T00:06:47;10.37;;;8.27;;
2111;SDS011;1062;52.538;13.400;2024-01-15T00:09:14;10.70;;;8.67;;
2111;SDS011;1062;52.538;13.400;2024-01-15T00:11:39;13.13;;;8.90;;
2111;SDS011;1062;52.538;13.400;2024-01-15T00:14:05;11.80;;;8.37;;
2111;SDS011;1062;52.538;13.400;2024-01-15T00:16:31;10.03;;;7.57;;
2111;SDS011;1062;52.538;13.400;2024-01-15T00:18:58;11.33;;;8.13;;
2111;SDS011;1062;52.538;13.400;2024-01-15T00:21:23;14.80;;;8.37;;
2111;SDS011;1062;52.538;13.400;2024-01-15T00:23:49;12.80;;;8.00;;
2111;SDS011;1062;52.538;13.400;2024-01-15T00:26:15;14.20;;;9.57;;
2111;SDS011;1062;52.538;13.400;2024-01-15T00:28:40;16.47;;;8.93;;
2111;SDS011;1062;52.538;13.400;2024-01-15T00:31:06;9.93;;;7.70;;
2111;SDS011;1062;52.538;13.400;2024-01-15T00:33:32;10.00;;;7.97;;
2111;SDS011;1062;52.538;13.400;2024-01-15T00:35:57;13.30;;;9.27;;
2111;SDS011;1062;52.538;13.400;2024-01-15T00:38:23;11.83;;;7.90;;
2111;SDS011;1062;52.538;13.400;2024-01-15T00:40:49;12.83;;;9.30;;
2111;SDS011;1062;52.538;13.400;2024-01-15T00:43:14;10.67;;;6.93;;
2111;SDS011;1062;52.538;13.400;2024-01-15T00:45:43;9.43;;;7.73;;
2111;SDS011;1062;52.538;13.400;2024-01-15T00:48:09;12.33;;;8.50;;
2111;SDS011;1062;52.538;13.400;2024-01-15T00:50:34;15.53;;;8.80;;
2111;SDS011;1062;52.538;13.400;2024-01-15T00:53:00;12.33;;;9.47;;
2111;SDS011;1062;52.538;13.400;2024-01-15T00:55:27;11.00;;;7.97;;
2111;SDS011;1062;52.538;13.400;2024-01-15T00:57:53;15.13;;;8.57;;
2111;SDS011;1062;52.538;13.400;2024-01-15T01:00:18;12.93;;;9.07;;
2111;SDS011;1062;52.538;13.400;2024-01-15T01:02:44;12.80;;;8.50;;
2111;SDS011;1062;52.538;13.400;2024-01-15T01:05:09;11.90;;;7.77;;
2111;SDS011;1062;52.538;13.400;2024-01-15T01:07:35;12.50;;;8.90;;
2111;SDS011;1062;52.538;13.400;2024-01-15T01:10:01;11.27;;;7.47;;
2111;SDS011;1062;52.538;13.400;2024-01-15T01:12:26;13.27;;;8.17;;
2111;SDS011;1062;52.538;13.400;2024-01-15T01:14:52;12.50;;;8.47;;
2111;SDS011;1062;52.538;13.400;2024-01-15T01:17:18;12.20;;;8.73;;
2111;SDS011;1062;52.538;13.400;2024-01-15T01:19:43;14.33;;;8.33;;
2111;SDS011;1062;52.538;13.400;2024-01-15T01:22:09;10.93;;;8.30;;
2111;SDS011;1062;52.538;13.400;2024-01-15T01:24:34;16.37;;;8.97;;
2111;SDS011;1062;52.538;13.400;2024-01-15T01:27:00;18.30;;;7.80;;
2111;SDS011;1062;52.538;13.400;2024-01-15T01:29:25;11.50;;;8.40;;
2111;SDS011;1062;52.538;13.400;2024-01-15T01:31:51;13.97;;;8.37;;
2111;SDS011;1062;52.538;13.400;2024-01-15T01:34:17;11.07;;;8.00;;
2111;SDS011;1062;52.538;13.400;2024-01-15T01:36:43;12.33;;;8.93;;
2111;SDS011;1062;52.538;13.400;2024-01-15T01:39:09;11.10;;;7.67;;
2111;SDS011;1062;52.538;13.400;2024-01-15T01:41:35;11.27;;;7.57;;
2111;SDS011;1062;52.538;13.400;2024-01-15T01:44:01;12.03;;;8.43;;
2111;SDS011;1062;52.538;13.400;2024-01-15T01:46:27;13.43;;;8.90;;
2111;SDS011;1062;52.538;13.400;2024-01-15T01:48:56;12.70;;;8.07;;
2111;SDS011;1062;52.538;13.400;2024-01-15T01:51:22;11.70;;;7.73;;
2111;SDS011;1062;52.538;13.400;2024-01-15T01:53:49;12.10;;;8.00;;
2111;SDS011;1062;52.538;13.400;2024-01-15T01:56:16;10.87;;;8.13;;
2111;SDS011;1062;52.538;13.400;2024-01-15T01:58:43;13.40;;;7.90;;
2111;SDS011;1062;52.538;13.400;2024-01-15T02:01:10;12.63;;;8.90;;
2111;SDS011;1062;52.538;13.400;2024-01-15T02:03:37;12.07;;;8.60;;
2111;SDS011;1062;52.538;13.400;2024-01-15T02:06:04;16.23;;;8.47;;
2111;SDS011;1062;52.538;13.400;2024-01-15T02:08:30;11.33;;;8.60;;
2111;SDS011;1062;52.538;13.400;2024-01-15T02:10:56;14.33;;;7.80;;
2111;SDS011;1062;52.538;13.400;2024-01-15T02:13:21;14.23;;;8.97;;
2111;SDS011;1062;52.538;13.400;2024-01-15T02:15:47;11.83;;;7.57;;
2111;SDS011;1062;52.538;13.400;2024-01-15T02:18:13;16.70;;;8.83;;
2111;SDS011;1062;52.538;13.400;2024-01-15T02:20:38;16.83;;;7.60;;
2111;SDS011;1062;52.538;13.400;2024-01-15T02:23:08;13.37;;;8.90;;
2111;SDS011;1062;52.538;13.400;2024-01-15T02:25:38;11.80;;;7.43;;
2111;SDS011;1062;52.538;13.400;2024-01-15T02:28:05;11.00;;;7.10;;
2111;SDS011;1062;52.538;13.400;2024-01-15T02:30:34;13.63;;;7.50;;
2111;SDS011;1062;52.538;13.400;2024-01-15T02:33:04;12.00;;;8.10;;
2111;SDS011;1062;52.538;13.400;2024-01-15T02:35:31;11.60;;;7.00;;
2111;SDS011;1062;52.538;13.400;2024-01-15T02:37:56;17.03;;;8.03;;
2111;SDS011;1062;52.538;13.400;2024-01-15T02:40:22;10.13;;;5.87;;
2111;SDS011;1062;52.538;13.400;2024-01-15T02:42:48;10.13;;;7.07;;
2111;SDS011;1062;52.538;13.400;2024-01-15T02:45:13;9.30;;;6.57;;
2111;SDS011;1062;52.538;13.400;2024-01-15T02:47:39;11.30;;;6.57;;
2111;SDS011;1062;52.538;13.400;2024-01-15T02:50:04;10.27;;;6.97;;
2111;SDS011;1062;52.538;13.400;2024-01-15T02:52:30;8.57;;;5.13;;
2111;SDS011;1062;52.538;13.400;2024-01-15T02:54:56;10.27;;;6.00;;
2111;SDS011;1062;52.538;13.400;2024-01-15T02:57:22;10.37;;;7.20;;
2111;SDS011;1062;52.538;13.400;2024-01-15T02:59:47;8.73;;;5.60;;
2111;SDS011;1062;52.538;13.400;2024-01-15T03:02:13;10.87;;;6.37;;
2111;SDS011;1062;52.538;13.400;2024-01-15T03:04:42;11.23;;;5.40;;
2111;SDS011;1062;52.538;13.400;2024-01-15T03:07:08;9.70;;;6.00;;
2111;SDS011;1062;52.538;13.400;2024-01-15T03:09:34;9.77;;;5.77;;
2111;SDS011;1062;52.538;13.400;2024-01-15T03:12:00;10.47;;;6.13;;
2111;SDS011;1062;52.538;13.400;2024-01-15T03:14:25;8.10;;;5.50;;
2111;SDS011;1062;52.538;13.400;2024-01-15T03:16:51;8.27;;;5.20;;
2111;SDS011;1062;52.538;13.400;2024-01-15T03:19:17;8.47;;;5.40;;
2111;SDS011;1062;52.538;13.400;2024-01-15T03:21:43;19.07;;;6.27;;
2111;SDS011;1062;52.538;13.400;2024-01-15T03:24:08;14.03;;;6.20;;
2111;SDS011;1062;52.538;13.400;2024-01-15T03:26:34;8.80;;;5.57;;
2111;SDS011;1062;52.538;13.400;2024-01-15T03:28:59;6.73;;;5.57;;
2111;SDS011;1062;52.538;13.400;2024-01-15T03:31:25;8.40;;;5.80;;
2111;SDS011;1062;52.538;13.400;2024-01-15T03:33:51;9.07;;;5.80;;
2111;SDS011;1062;52.538;13.400;2024-01-15T03:36:17;9.53;;;5.93;;
2111;SDS011;1062;52.538;13.400;2024-01-15T03:38:42;8.23;;;5.33;;
2111;SDS011;1062;52.538;13.400;2024-01-15T03:41:08;9.70;;;5.87;;
2111;SDS011;1062;52.538;13.400;2024-01-15T03:43:33;6.07;;;5.00;;
2111;SDS011;1062;52.538;13.400;2024-01-15T03:45:59;7.67;;;4.87;;
2111;SDS011;1062;52.538;13.400;2024-01-15T03:48:25;7.33;;;5.27;;
2111;SDS011;1062;52.538;13.400;2024-01-15T03:50:50;7.73;;;4.73;;
2111;SDS011;1062;52.538;13.400;2024-01-15T03:53:16;6.87;;;3.90;;
2111;SDS011;1062;52.538;13.400;2024-01-15T03:55:42;6.23;;;5.63;;
2111;SDS011;1062;52.538;13.400;2024-01-15T03:58:07;9.70;;;4.90;;
2111;SDS011;1062;52.538;13.400;2024-01-15T04:00:33;5.73;;;4.40;;
2111;SDS011;1062;52.538;13.400;2024-01-15T04:02:59;6.63;;;4.90;;
2111;SDS011;1062;52.538;13.400;2024-01-15T04:05:25;8.93;;;4.70;;
2111;SDS011;1062;52.538;13.400;2024-01-15T04:07:51;9.93;;;4.80;;
2111;SDS011;1062;52.538;13.400;2024-01-15T04:10:16;9.10;;;5.43;;
2111;SDS011;1062;52.538;13.400;2024-01-15T04:12:42;8.40;;;5.40;;
2111;SDS011;1062;52.538;13.400;2024-01-15T04:15:07;7.33;;;5.00;;
2111;SDS011;1062;52.538;13.400;2024-01-15T04:17:33;7.20;;;5.43;;
2111;SDS011;1062;52.538;13.400;2024-01-15T04:19:59;10.33;;;5.00;;
2111;SDS011;1062;52.538;13.400;2024-01-15T04:22:25;8.80;;;5.03;;
2111;SDS011;1062;52.538;13.400;2024-01-15T04:24:51;8.63;;;5.00;;
2111;SDS011;1062;52.538;13.400;2024-01-15T04:27:17;7.60;;;4.50;;
2111;SDS011;1062;52.538;13.400;2024-01-15T04:29:43;7.40;;;5.93;;
2111;SDS011;1062;52.538;13.400;2024-01-15T04:32:09;7.23;;;4.00;;
2111;SDS011;1062;52.538;13.400;2024-01-15T04:34:35;5.43;;;3.83;;
2111;SDS011;1062;52.538;13.400;2024-01-15T04:37:01;11.13;;;4.50;;
2111;SDS011;1062;52.538;13.400;2024-01-15T04:39:26;4.97;;;3.40;;
2111;SDS011;1062;52.538;13.400;2024-01-15T04:41:52;12.43;;;5.27;;
2111;SDS011;1062;52.538;13.400;2024-01-15T04:44:18;7.63;;;4.23;;
2111;SDS011;1062;52.538;13.400;2024-01-15T04:46:43;6.63;;;4.80;;
2111;SDS011;1062;52.538;13.400;2024-01-15T04:49:09;6.50;;;3.40;;
2111;SDS011;1062;52.538;13.400;2024-01-15T04:51:35;14.27;;;4.17;;
2111;SDS011;1062;52.538;13.400;2024-01-15T04:54:01;5.63;;;2.97;;
2111;SDS011;1062;52.538;13.400;2024-01-15T04:56:27;4.50;;;3.23;;
2111;SDS011;1062;52.538;13.400;2024-01-15T04:58:52;5.33;;;3.90;;
2111;SDS011;1062;52.538;13.400;2024-01-15T05:01:18;5.50;;;3.30;;
2111;SDS011;1062;52.538;13.400;2024-01-15T05:03:43;6.27;;;3.27;;
2111;SDS011;1062;52.538;13.400;2024-01-15T05:06:09;6.60;;;3.67;;
2111;SDS011;1062;52.538;13.400;2024-01-15T05:08:35;6.33;;;3.10;;
2111;SDS011;1062;52.538;13.400;2024-01-15T05:11:00;4.33;;;2.90;;
2111;SDS011;1062;52.538;13.400;2024-01-15T05:13:26;3.60;;;2.87;;
2111;SDS011;1062;52.538;13.400;2024-01-15T05:15:52;4.77;;;4.03;;
2111;SDS011;1062;52.538;13.400;2024-01-15T05:18:17;5.93;;;3.20;;
2111;SDS011;1062;52.538;13.400;2024-01-15T05:20:43;3.30;;;2.43;;
2111;SDS011;1062;52.538;13.400;2024-01-15T05:23:09;9.43;;;3.00;;
2111;SDS011;1062;52.538;13.400;2024-01-15T05:25:34;3.23;;;2.93;;
2111;SDS011;1062;52.538;13.400;2024-01-15T05:28:00;11.90;;;3.33;;
2111;SDS011;1062;52.538;13.400;2024-01-15T05:30:27;7.13;;;2.90;;
2111;SDS011;1062;52.538;13.400;2024-01-15T05:32:53;3.43;;;2.87;;
2111;SDS011;1062;52.538;13.400;2024-01-15T05:35:18;8.40;;;3.20;;
2111;SDS011;1062;52.538;13.400;2024-01-15T05:37:44;3.60;;;2.50;;
2111;SDS011;1062;52.538;13.400;2024-01-15T05:40:11;5.47;;;4.17;;
2111;SDS011;1062;52.538;13.400;2024-01-15T05:42:38;5.73;;;2.60;;
2111;SDS011;1062;52.538;13.400;2024-01-15T05:45:04;6.17;;;3.03;;
2111;SDS011;1062;52.538;13.400;2024-01-15T05:47:31;9.20;;;3.60;;
2111;SDS011;1062;52.538;13.400;2024-01-15T05:49:56;10.60;;;3.10;;
2111;SDS011;1062;52.538;13.400;2024-01-15T05:52:23;6.50;;;2.90;;
2111;SDS011;1062;52.538;13.400;2024-01-15T05:54:49;8.63;;;3.30;;
2111;SDS011;1062;52.538;13.400;2024-01-15T05:57:14;7.40;;;2.90;;
2111;SDS011;1062;52.538;13.400;2024-01-15T05:59:40;3.80;;;2.80;;
2111;SDS011;1062;52.538;13.400;2024-01-15T06:02:06;3.37;;;2.40;;
2111;SDS011;1062;52.538;13.400;2024-01-15T06:04:31;5.90;;;2.60;;
2111;SDS011;1062;52.538;13.400;2024-01-15T06:06:57;4.93;;;3.10;;
2111;SDS011;1062;52.538;13.400;2024-01-15T06:09:22;5.30;;;3.03;;
2111;SDS011;1062;52.538;13.400;2024-01-15T06:11:48;2.90;;;2.50;;
2111;SDS011;1062;52.538;13.400;2024-01-15T06:14:14;7.50;;;2.43;;
2111;SDS011;1062;52.538;13.400;2024-01-15T06:16:39;6.10;;;2.17;;
2111;SDS011;1062;52.538;13.400;2024-01-15T06:19:05;8.17;;;2.60;;
2111;SDS011;1062;52.538;13.400;2024-01-15T06:21:30;5.70;;;2.70;;
2111;SDS011;1062;52.538;13.400;2024-01-15T06:23:56;8.57;;;2.47;;
2111;SDS011;1062;52.538;13.400;2024-01-15T06:26:22;2.30;;;2.10;;
2111;SDS011;1062;52.538;13.400;2024-01-15T06:28:48;4.30;;;2.27;;
2111;SDS011;1062;52.538;13.400;2024-01-15T06:31:13;5.43;;;1.90;;
2111;SDS011;1062;52.538;13.400;2024-01-15T06:33:39;3.40;;;1.90;;
2111;SDS011;1062;52.538;13.400;2024-01-15T06:36:05;4.40;;;2.03;;
2111;SDS011;1062;52.538;13.400;2024-01-15T06:38:31;8.30;;;2.67;;
2111;SDS011;1062;52.538;13.400;2024-01-15T06:40:56;3.30;;;1.80;;
2111;SDS011;1062;52.538;13.400;2024-01-15T06:43:22;3.23;;;1.97;;
2111;SDS011;1062;52.538;13.400;2024-01-15T06:45:47;2.87;;;1.70;;
2111;SDS011;1062;52.538;13.400;2024-01-15T06:48:13;5.00;;;2.50;;
2111;SDS011;1062;52.538;13.400;2024-01-15T06:50:42;3.93;;;1.83;;
2111;SDS011;1062;52.538;13.400;2024-01-15T06:53:08;4.20;;;2.30;;
2111;SDS011;1062;52.538;13.400;2024-01-15T06:55:33;5.23;;;2.50;;
2111;SDS011;1062;52.538;13.400;2024-01-15T06:57:59;5.40;;;2.57;;
2111;SDS011;1062;52.538;13.400;2024-01-15T07:00:25;6.10;;;2.40;;
2111;SDS011;1062;52.538;13.400;2024-01-15T07:02:51;13.37;;;2.20;;
2111;SDS011;1062;52.538;13.400;2024-01-15T07:05:17;6.90;;;2.77;;
2111;SDS011;1062;52.538;13.400;2024-01-15T07:07:42;4.27;;;2.17;;
2111;SDS011;1062;52.538;13.400;2024-01-15T07:10:08;2.70;;;1.80;;
2111;SDS011;1062;52.538;13.400;2024-01-15T07:12:34;3.93;;;2.10;;
2111;SDS011;1062;52.538;13.400;2024-01-15T07:14:59;7.10;;;1.90;;
2111;SDS011;1062;52.538;13.400;2024-01-15T07:17:25;6.63;;;2.17;;
2111;SDS011;1062;52.538;13.400;2024-01-15T07:19:51;4.47;;;1.63;;
2111;SDS011;1062;52.538;13.400;2024-01-15T07:22:16;4.57;;;1.53;;
2111;SDS011;1062;52.538;13.400;2024-01-15T07:24:42;8.00;;;1.87;;
2111;SDS011;1062;52.538;13.400;2024-01-15T07:27:08;5.40;;;2.10;;
2111;SDS011;1062;52.538;13.400;2024-01-15T07:29:34;3.93;;;1.97;;
2111;SDS011;1062;52.538;13.400;2024-01-15T07:32:03;5.50;;;1.87;;
2111;SDS011;1062;52.538;13.400;2024-01-15T07:34:29;5.47;;;2.70;;
2111;SDS011;1062;52.538;13.400;2024-01-15T07:36:57;7.50;;;3.17;;
2111;SDS011;1062;52.538;13.400;2024-01-15T07:39:22;7.67;;;2.40;;
2111;SDS011;1062;52.538;13.400;2024-01-15T07:41:49;6.53;;;2.00;;
2111;SDS011;1062;52.538;13.400;2024-01-15T07:44:15;5.40;;;2.07;;
2111;SDS011;1062;52.538;13.400;2024-01-15T07:46:45;10.23;;;3.10;;
2111;SDS011;1062;52.538;13.400;2024-01-15T07:49:11;11.13;;;2.77;;
2111;SDS011;1062;52.538;13.400;2024-01-15T07:51:37;9.37;;;2.13;;
2111;SDS011;1062;52.538;13.400;2024-01-15T07:54:02;3.93;;;2.20;;
2111;SDS011;1062;52.538;13.400;2024-01-15T07:56:28;7.40;;;2.30;;
2111;SDS011;1062;52.538;13.400;2024-01-15T07:58:54;6.33;;;2.30;;
2111;SDS011;1062;52.538;13.400;2024-01-15T08:01:21;7.70;;;2.67;;
2111;SDS011;1062;52.538;13.400;2024-01-15T08:03:46;4.50;;;2.00;;
2111;SDS011;1062;52.538;13.400;2024-01-15T08:06:13;7.90;;;3.57;;
2111;SDS011;1062;52.538;13.400;2024-01-15T08:08:38;10.47;;;2.70;;
2111;SDS011;1062;52.538;13.400;2024-01-15T08:11:04;3.47;;;1.80;;
2111;SDS011;1062;52.538;13.400;2024-01-15T08:13:30;9.37;;;1.80;;
2111;SDS011;1062;52.538;13.400;2024-01-15T08:15:55;11.87;;;2.87;;
2111;SDS011;1062;52.538;13.400;2024-01-15T08:18:21;4.87;;;2.37;;
2111;SDS011;1062;52.538;13.400;2024-01-15T08:20:47;3.67;;;2.00;;
2111;SDS011;1062;52.538;13.400;2024-01-15T08:23:12;6.27;;;2.27;;
2111;SDS011;1062;52.538;13.400;2024-01-15T08:25:38;4.00;;;1.97;;
2111;SDS011;1062;52.538;13.400;2024-01-15T08:28:04;6.30;;;2.70;;
2111;SDS011;1062;52.538;13.400;2024-01-15T08:30:30;3.67;;;1.80;;
2111;SDS011;1062;52.538;13.400;2024-01-15T08:32:56;3.97;;;1.60;;
2111;SDS011;1062;52.538;13.400;2024-01-15T08:35:22;4.13;;;1.57;;
2111;SDS011;1062;52.538;13.400;2024-01-15T08:37:50;5.00;;;2.30;;
2111;SDS011;1062;52.538;13.400;2024-01-15T08:40:17;2.23;;;1.70;;
2111;SDS011;1062;52.538;13.400;2024-01-15T08:42:43;7.33;;;1.97;;
2111;SDS011;1062;52.538;13.400;2024-01-15T08:45:09;3.03;;;1.90;;
2111;SDS011;1062;52.538;13.400;2024-01-15T08:47:35;1.40;;;1.30;;
2111;SDS011;1062;52.538;13.400;2024-01-15T08:50:01;4.70;;;1.73;;
2111;SDS011;1062;52.538;13.400;2024-01-15T08:52:28;3.90;;;1.47;;
2111;SDS011;1062;52.538;13.400;2024-01-15T08:54:55;2.90;;;1.60;;
2111;SDS011;1062;52.538;13.400;2024-01-15T08:57:24;7.40;;;3.03;;
2111;SDS011;1062;52.538;13.400;2024-01-15T08:59:49;7.13;;;2.63;;
2111;SDS011;1062;52.538;13.400;2024-01-15T09:02:18;5.80;;;1.80;;
2111;SDS011;1062;52.538;13.400;2024-01-15T09:04:51;6.53;;;2.27;;
2111;SDS011;1062;52.538;13.400;2024-01-15T09:07:26;4.40;;;2.53;;
2111;SDS011;1062;52.538;13.400;2024-01-15T09:09:54;3.57;;;2.40;;
2111;SDS011;1062;52.538;13.400;2024-01-15T09:12:20;5.80;;;1.70;;
2111;SDS011;1062;52.538;13.400;2024-01-15T09:14:47;5.77;;;2.70;;
2111;SDS011;1062;52.538;13.400;2024-01-15T09:17:19;4.20;;;2.10;;
2111;SDS011;1062;52.538;13.400;2024-01-15T09:19:46;2.63;;;2.03;;
2111;SDS011;1062;52.538;13.400;2024-01-15T09:22:17;2.73;;;2.17;;
2111;SDS011;1062;52.538;13.400;2024-01-15T09:24:46;2.93;;;1.80;;
2111;SDS011;1062;52.538;13.400;2024-01-15T09:27:14;5.30;;;2.40;;
2111;SDS011;1062;52.538;13.400;2024-01-15T09:29:42;6.80;;;2.20;;
2111;SDS011;1062;52.538;13.400;2024-01-15T09:32:13;2.33;;;1.40;;
2111;SDS011;1062;52.538;13.400;2024-01-15T09:34:48;3.87;;;2.13;;
2111;SDS011;1062;52.538;13.400;2024-01-15T09:37:17;3.20;;;1.57;;
2111;SDS011;1062;52.538;13.400;2024-01-15T09:39:43;4.30;;;2.27;;
2111;SDS011;1062;52.538;13.400;2024-01-15T09:42:11;5.30;;;2.00;;
2111;SDS011;1062;52.538;13.400;2024-01-15T09:44:40;8.53;;;2.13;;
2111;SDS011;1062;52.538;13.400;2024-01-15T09:47:06;5.00;;;1.90;;
2111;SDS011;1062;52.538;13.400;2024-01-15T09:49:33;7.10;;;2.37;;
2111;SDS011;1062;52.538;13.400;2024-01-15T09:51:59;9.10;;;2.30;;
2111;SDS011;1062;52.538;13.400;2024-01-15T09:54:26;8.83;;;1.97;;
2111;SDS011;1062;52.538;13.400;2024-01-15T09:56:52;4.40;;;1.30;;
2111;SDS011;1062;52.538;13.400;2024-01-15T09:59:23;3.40;;;1.47;;
2111;SDS011;1062;52.538;13.400;2024-01-15T10:01:50;5.57;;;1.73;;
2111;SDS011;1062;52.538;13.400;2024-01-15T10:04:17;4.10;;;1.93;;
2111;SDS011;1062;52.538;13.400;2024-01-15T10:06:46;4.33;;;1.67;;
2111;SDS011;1062;52.538;13.400;2024-01-15T10:09:13;2.43;;;1.53;;
2111;SDS011;1062;52.538;13.400;2024-01-15T10:11:42;1.47;;;1.30;;
2111;SDS011;1062;52.538;13.400;2024-01-15T10:14:08;3.10;;;1.60;;
2111;SDS011;1062;52.538;13.400;2024-01-15T10:16:37;3.60;;;2.10;;
2111;SDS011;1062;52.538;13.400;2024-01-15T10:19:07;2.60;;;1.50;;
2111;SDS011;1062;52.538;13.400;2024-01-15T10:21:33;2.50;;;1.87;;
2111;SDS011;1062;52.538;13.400;2024-01-15T10:24:02;3.80;;;2.13;;
2111;SDS011;1062;52.538;13.400;2024-01-15T10:26:28;3.47;;;2.03;;
2111;SDS011;1062;52.538;13.400;2024-01-15T10:28:55;4.70;;;1.63;;
2111;SDS011;1062;52.538;13.400;2024-01-15T10:31:20;9.27;;;2.17;;
2111;SDS011;1062;52.538;13.400;2024-01-15T10:33:47;2.33;;;1.70;;
2111;SDS011;1062;52.538;13.400;2024-01-15T10:36:13;3.10;;;2.30;;
2111;SDS011;1062;52.538;13.400;2024-01-15T10:38:41;4.03;;;2.57;;
2111;SDS011;1062;52.538;13.400;2024-01-15T10:41:08;10.40;;;1.97;;
2111;SDS011;1062;52.538;13.400;2024-01-15T10:43:34;3.97;;;1.53;;
2111;SDS011;1062;52.538;13.400;2024-01-15T10:46:00;8.17;;;2.20;;
2111;SDS011;1062;52.538;13.400;2024-01-15T10:48:26;2.00;;;1.47;;
2111;SDS011;1062;52.538;13.400;2024-01-15T10:50:53;6.13;;;2.10;;
2111;SDS011;1062;52.538;13.400;2024-01-15T10:53:19;2.20;;;2.00;;
2111;SDS011;1062;52.538;13.400;2024-01-15T10:55:46;3.80;;;2.33;;
2111;SDS011;1062;52.538;13.400;2024-01-15T10:58:13;2.13;;;1.93;;
2111;SDS011;1062;52.538;13.400;2024-01-15T11:00:41;8.50;;;1.70;;
2111;SDS011;1062;52.538;13.400;2024-01-15T11:03:06;7.83;;;1.97;;
2111;SDS011;1062;52.538;13.400;2024-01-15T11:05:38;4.63;;;2.10;;
2111;SDS011;1062;52.538;13.400;2024-01-15T11:08:07;1.93;;;1.67;;
2111;SDS011;1062;52.538;13.400;2024-01-15T11:10:46;2.40;;;1.43;;
2111;SDS011;1062;52.538;13.400;2024-01-15T11:13:39;4.20;;;1.70;;
2111;SDS011;1062;52.538;13.400;2024-01-15T11:16:12;1.90;;;1.67;;
2111;SDS011;1062;52.538;13.400;2024-01-15T11:21:23;2.50;;;1.60;;
2111;SDS011;1062;52.538;13.400;2024-01-15T11:23:55;1.77;;;1.30;;
2111;SDS011;1062;52.538;13.400;2024-01-15T11:26:38;3.27;;;1.40;;
2111;SDS011;1062;52.538;13.400;2024-01-15T11:34:21;2.67;;;1.60;;
2111;SDS011;1062;52.538;13.400;2024-01-15T11:37:07;5.70;;;1.73;;
2111;SDS011;1062;52.538;13.400;2024-01-15T11:41:58;3.93;;;2.87;;
2111;SDS011;1062;52.538;13.400;2024-01-15T11:44:26;2.50;;;1.50;;
2111;SDS011;1062;52.538;13.400;2024-01-15T11:52:32;2.10;;;1.53;;
2111;SDS011;1062;52.538;13.400;2024-01-15T11:55:12;4.47;;;2.17;;
2111;SDS011;1062;52.538;13.400;2024-01-15T11:57:50;5.73;;;2.10;;
2111;SDS011;1062;52.538;13.400;2024-01-15T12:00:19;3.03;;;1.57;;
2111;SDS011;1062;52.538;13.400;2024-01-15T12:02:47;3.30;;;2.20;;
2111;SDS011;1062;52.538;13.400;2024-01-15T12:05:14;2.33;;;2.13;;
2111;SDS011;1062;52.538;13.400;2024-01-15T12:07:42;6.70;;;3.40;;
2111;SDS011;1062;52.538;13.400;2024-01-15T12:10:12;4.50;;;2.17;;
2111;SDS011;1062;52.538;13.400;2024-01-15T12:15:09;2.37;;;1.60;;
2111;SDS011;1062;52.538;13.400;2024-01-15T12:17:35;9.20;;;4.00;;
2111;SDS011;1062;52.538;13.400;2024-01-15T12:20:02;5.13;;;3.60;;
2111;SDS011;1062;52.538;13.400;2024-01-15T12:22:29;3.90;;;3.20;;
2111;SDS011;1062;52.538;13.400;2024-01-15T12:24:55;2.70;;;1.87;;
2111;SDS011;1062;52.538;13.400;2024-01-15T12:27:20;1.77;;;1.63;;
2111;SDS011;1062;52.538;13.400;2024-01-15T12:29:46;3.00;;;1.70;;
2111;SDS011;1062;52.538;13.400;2024-01-15T12:32:12;10.33;;;2.40;;
2111;SDS011;1062;52.538;13.400;2024-01-15T12:34:38;3.33;;;2.00;;
2111;SDS011;1062;52.538;13.400;2024-01-15T12:37:04;1.93;;;1.47;;
2111;SDS011;1062;52.538;13.400;2024-01-15T12:39:33;3.40;;;1.63;;
2111;SDS011;1062;52.538;13.400;2024-01-15T12:42:00;2.63;;;1.50;;
2111;SDS011;1062;52.538;13.400;2024-01-15T12:44:26;1.80;;;1.50;;
2111;SDS011;1062;52.538;13.400;2024-01-15T12:46:53;4.73;;;1.53;;
2111;SDS011;1062;52.538;13.400;2024-01-15T12:49:18;6.07;;;1.90;;
2111;SDS011;1062;52.538;13.400;2024-01-15T12:51:51;6.43;;;2.27;;
2111;SDS011;1062;52.538;13.400;2024-01-15T12:54:22;1.50;;;1.27;;
2111;SDS011;1062;52.538;13.400;2024-01-15T12:56:49;2.50;;;1.57;;
2111;SDS011;1062;52.538;13.400;2024-01-15T12:59:15;1.70;;;1.60;;
2111;SDS011;1062;52.538;13.400;2024-01-15T13:01:40;3.87;;;1.67;;
2111;SDS011;1062;52.538;13.400;2024-01-15T13:04:06;2.47;;;1.67;;
2111;SDS011;1062;52.538;13.400;2024-01-15T13:06:34;1.77;;;1.67;;
2111;SDS011;1062;52.538;13.400;2024-01-15T13:09:00;1.57;;;1.47;;
2111;SDS011;1062;52.538;13.400;2024-01-15T13:11:26;1.60;;;1.50;;
2111;SDS011;1062;52.538;13.400;2024-01-15T13:13:52;2.37;;;1.60;;
2111;SDS011;1062;52.538;13.400;2024-01-15T13:16:18;2.20;;;1.83;;
2111;SDS011;1062;52.538;13.400;2024-01-15T13:18:45;1.70;;;1.60;;
2111;SDS011;1062;52.538;13.400;2024-01-15T13:21:11;3.40;;;2.03;;
2111;SDS011;1062;52.538;13.400;2024-01-15T13:23:37;2.43;;;1.80;;
2111;SDS011;1062;52.538;13.400;2024-01-15T13:26:03;3.83;;;1.90;;
2111;SDS011;1062;52.538;13.400;2024-01-15T13:28:30;2.40;;;1.67;;
2111;SDS011;1062;52.538;13.400;2024-01-15T13:30:55;3.47;;;1.93;;
2111;SDS011;1062;52.538;13.400;2024-01-15T13:33:21;1.70;;;1.60;;
2111;SDS011;1062;52.538;13.400;2024-01-15T13:35:47;1.57;;;1.30;;
2111;SDS011;1062;52.538;13.400;2024-01-15T13:38:15;1.50;;;1.40;;
2111;SDS011;1062;52.538;13.400;2024-01-15T13:40:40;3.00;;;1.40;;
2111;SDS011;1062;52.538;13.400;2024-01-15T13:43:06;2.50;;;1.60;;
2111;SDS011;1062;52.538;13.400;2024-01-15T13:45:33;1.40;;;1.30;;
2111;SDS011;1062;52.538;13.400;2024-01-15T13:48:00;4.20;;;1.90;;
2111;SDS011;1062;52.538;13.400;2024-01-15T13:50:26;2.40;;;1.40;;
2111;SDS011;1062;52.538;13.400;2024-01-15T13:52:52;9.40;;;2.83;;
2111;SDS011;1062;52.538;13.400;2024-01-15T13:55:18;2.80;;;1.20;;
2111;SDS011;1062;52.538;13.400;2024-01-15T13:57:43;2.00;;;1.60;;
2111;SDS011;1062;52.538;13.400;2024-01-15T14:00:09;2.20;;;1.57;;
2111;SDS011;1062;52.538;13.400;2024-01-15T14:02:37;1.63;;;1.53;;
2111;SDS011;1062;52.538;13.400;2024-01-15T14:05:02;4.63;;;1.80;;
2111;SDS011;1062;52.538;13.400;2024-01-15T14:07:28;4.00;;;1.57;;
2111;SDS011;1062;52.538;13.400;2024-01-15T14:09:54;2.13;;;1.60;;
2111;SDS011;1062;52.538;13.400;2024-01-15T14:12:19;2.43;;;1.70;;
2111;SDS011;1062;52.538;13.400;2024-01-15T14:14:45;2.83;;;1.50;;
2111;SDS011;1062;52.538;13.400;2024-01-15T14:17:10;1.97;;;1.47;;
2111;SDS011;1062;52.538;13.400;2024-01-15T14:19:36;2.90;;;1.67;;
2111;SDS011;1062;52.538;13.400;2024-01-15T14:22:02;2.70;;;1.40;;
2111;SDS011;1062;52.538;13.400;2024-01-15T14:24:28;1.20;;;1.03;;
2111;SDS011;1062;52.538;13.400;2024-01-15T14:26:54;3.40;;;1.33;;
2111;SDS011;1062;52.538;13.400;2024-01-15T14:29:19;3.93;;;1.77;;
2111;SDS011;1062;52.538;13.400;2024-01-15T14:31:47;6.67;;;1.80;;
2111;SDS011;1062;52.538;13.400;2024-01-15T14:34:13;2.17;;;1.97;;
2111;SDS011;1062;52.538;13.400;2024-01-15T14:36:38;2.03;;;1.80;;
2111;SDS011;1062;52.538;13.400;2024-01-15T14:39:04;2.10;;;1.77;;
2111;SDS011;1062;52.538;13.400;2024-01-15T14:41:30;2.60;;;1.70;;
2111;SDS011;1062;52.538;13.400;2024-01-15T14:43:55;2.40;;;1.67;;
2111;SDS011;1062;52.538;13.400;2024-01-15T14:46:22;2.67;;;1.60;;
2111;SDS011;1062;52.538;13.400;2024-01-15T14:48:47;1.67;;;1.57;;
2111;SDS011;1062;52.538;13.400;2024-01-15T14:51:13;5.17;;;1.87;;
2111;SDS011;1062;52.538;13.400;2024-01-15T14:53:39;2.27;;;1.67;;
2111;SDS011;1062;52.538;13.400;2024-01-15T14:56:05;1.77;;;1.47;;
2111;SDS011;1062;52.538;13.400;2024-01-15T14:58:30;2.10;;;1.47;;
2111;SDS011;1062;52.538;13.400;2024-01-15T15:00:56;1.40;;;1.30;;
2111;SDS011;1062;52.538;13.400;2024-01-15T15:03:22;2.17;;;1.70;;
2111;SDS011;1062;52.538;13.400;2024-01-15T15:05:47;2.03;;;1.73;;
2111;SDS011;1062;52.538;13.400;2024-01-15T15:08:13;2.77;;;1.67;;
2111;SDS011;1062;52.538;13.400;2024-01-15T15:10:39;3.67;;;1.80;;
2111;SDS011;1062;52.538;13.400;2024-01-15T15:13:05;4.83;;;1.10;;